Latest Coastal Weather Observations for Bellambi

IDN60701

Issued at 7:42 pm EST Friday 1 July 2016 (issued every 10 minutes, with the page automatically refreshed every 10 minutes)

About coastal observations | Map of coastal stations | Coastal observations for NSW | Marine services | Other Formats
Station Details ID: 068228 Name: BELLAMBI AWS Lat: -34.37 Lon: 150.93 Height: 10.0 m
Data from the previous 72 hours. | See also: Recent months at Bellambi
Date/Time
EST
Temp
°C
Wind Pressure Rain since
9am
mm
Weather Cloud Vis
km
Sea
Height
m
Swell
Dir  Spd
kts
Gust
kts
hPa Trend Height
m
Period
s
Dir
01/07:30pm 11.6 WSW 11 17 - - 0.0 - - - - - - -
01/07:00pm 12.1 WSW 14 21 - - 0.0 - - - - - - -
01/06:30pm 12.2 WSW 11 16 - - 0.0 - - - - - - -
01/06:00pm 12.6 W 8 11 - - 0.0 - - - - - - -
01/05:30pm 13.1 WSW 9 13 - - 0.0 - - - - - - -
01/05:00pm 13.6 WSW 9 13 - - 0.0 - - - - - - -
01/04:30pm 14.7 WSW 8 12 - - 0.0 - - - - - - -
01/04:00pm 15.3 WSW 9 13 - - 0.0 - - - - - - -
01/03:30pm 15.6 SW 10 15 - - 0.0 - - - - - - -
01/03:00pm 15.6 SW 12 19 - - 0.0 - - - - - - -
01/02:30pm 15.7 WSW 11 16 - - 0.0 - - - - - - -
01/02:00pm 15.7 WSW 10 15 - - 0.0 - - - - - - -
01/01:30pm 15.5 WSW 11 18 - - 0.0 - - - - - - -
01/01:00pm 15.6 WSW 12 20 - - 0.0 - - - - - - -
01/12:30pm 14.8 WSW 12 22 - - 0.0 - - - - - - -
01/12:00pm 14.7 WSW 14 21 - - 0.0 - - - - - - -
01/11:30am 14.7 WSW 14 21 - - 0.0 - - - - - - -
01/11:06am 14.0 WSW 15 27 - - 0.0 - - - - - - -
01/11:00am 14.2 W 12 19 - - 0.0 - - - - - - -
01/10:36am 13.7 W 16 26 - - 0.0 - - - - - - -
01/10:30am 13.6 W 16 25 - - 0.0 - - - - - - -
01/10:00am 13.0 W 16 33 - - 0.0 - - - - - - -
01/09:30am 12.3 WNW 17 29 - - 0.0 - - - - - - -
01/09:00am 11.6 WNW 17 31 - - 0.0 - Mostly clear - - - - -
01/08:30am 10.6 WNW 19 31 - - 0.0 - Cloudy - - - - -
01/08:00am 10.5 WNW 16 29 - - 0.0 - Cloudy - - - - -
01/07:56am 10.3 WNW 15 26 - - 0.0 - Cloudy - - - - -
01/07:30am 9.9 W 8 20 - - 0.0 - Partly cloudy - - - - -
01/07:00am 9.5 WSW 7 15 - - 0.0 - - - - - - -
01/06:30am 9.3 SW 9 24 - - 0.0 - - - - - - -
01/06:00am 9.3 WNW 11 19 - - 0.0 - Cloudy - - - - -
01/05:30am 9.5 W 8 13 - - 0.0 - - - - - - -
01/05:00am 9.5 WSW 6 10 - - 0.0 - - - - - - -
01/04:30am 10.1 SW 8 15 - - 0.0 - - - - - - -
01/04:00am 9.9 WNW 10 17 - - 0.0 - - - - - - -
01/03:30am 10.2 NW 5 9 - - 0.0 - Partly cloudy - - - - -
01/03:00am 10.6 W 9 15 - - 0.0 - Cloudy - - - - -
01/02:30am 11.7 NNW 7 11 - - 0.0 - Partly cloudy - - - - -
01/02:00am 12.2 NNW 15 20 - - 0.0 - - - - - - -
01/01:30am 12.5 NNW 19 25 - - 0.0 - - - - - - -
01/01:22am 12.5 NW 18 25 - - 0.0 - - - - - - -
01/01:00am 11.9 WNW 9 15 - - 0.0 - - - - - - -
01/12:30am 11.7 WNW 12 19 - - 0.0 - - - - - - -
01/12:00am 11.5 NW 19 25 - - 0.0 - - - - - - -
 
Date/Time
EST
Temp
°C
Wind Pressure Rain since
9am
mm
Weather Cloud Vis
km
Sea
Height
m
Swell
Dir  Spd
kts
Gust
kts
hPa Trend Height
m
Period
s
Dir
30/11:48pm 11.5 NW 16 27 - - 0.0 - - - - - - -
30/11:39pm 11.8 NNW 12 23 - - 0.0 - - - - - - -
30/11:30pm 12.0 NNW 8 15 - - 0.0 - - - - - - -
30/11:00pm 12.4 NNE 9 14 - - 0.0 - - - - - - -
30/10:30pm 12.6 NNE 11 17 - - 0.0 - - - - - - -
30/10:00pm 12.9 NNW 9 16 - - 0.0 - - - - - - -
30/09:30pm 12.6 NNW 15 22 - - 0.0 - - - - - - -
30/09:00pm 13.0 NNW 11 16 - - 0.0 - Partly cloudy - - - - -
30/08:30pm 13.5 N 10 15 - - 0.0 - Partly cloudy - - - - -
30/08:00pm 13.7 NNW 13 20 - - 0.0 - - - - - - -
30/07:30pm 13.5 NNW 9 14 - - 0.0 - - - - - - -
30/07:00pm 12.7 NW 7 11 - - 0.0 - - - - - - -
30/06:30pm 13.1 N 1 5 - - 0.0 - - - - - - -
30/06:00pm 13.5 N 7 10 - - 0.0 - Cloudy - - - - -
30/05:30pm 13.7 N 7 13 - - 0.0 - - - - - - -
30/05:00pm 13.6 N 5 7 - - 0.0 - - - - - - -
30/04:30pm 14.1 N 8 10 - - 0.0 - - - - - - -
30/04:00pm 13.9 NNW 7 10 - - 0.0 - - - - - - -
30/03:30pm 13.9 NNW 7 10 - - 0.0 - - - - - - -
30/03:00pm 14.2 N 8 12 - - 0.0 - Cloudy - - - - -
30/02:30pm 14.5 NNW 7 10 - - 0.0 - - - - - - -
30/02:00pm 14.9 N 9 12 - - 0.0 - - - - - - -
30/01:30pm 15.8 N 5 10 - - 0.0 - - - - - - -
30/01:00pm 16.2 NW 11 16 - - 0.0 - - - - - - -
30/12:30pm 16.0 N 9 14 - - 0.0 - - - - - - -
30/12:00pm 15.5 NNW 9 16 - - 0.0 - Mostly clear - - - - -
30/11:30am 16.7 NNW 4 8 - - 0.0 - - - - - - -
30/11:00am 16.5 NNW 4 7 - - 0.0 - - - - - - -
30/10:30am 15.7 WNW 5 9 - - 0.0 - - - - - - -
30/10:00am 14.8 NW 8 11 - - 0.0 - - - - - - -
30/09:30am 13.7 NW 8 11 - - 0.0 - - - - - - -
30/09:00am 12.9 NW 8 11 - - 0.0 - - - - - - -
30/08:30am 12.3 W 5 6 - - 0.0 - - - - - - -
30/08:00am 11.3 WSW 5 6 - - 0.0 - - - - - - -
30/07:30am 9.8 SW 3 6 - - 0.0 - - - - - - -
30/07:00am 10.7 NW 7 10 - - 0.0 - - - - - - -
30/06:30am 10.7 NW 10 13 - - 0.0 - - - - - - -
30/06:00am 8.8 SSW 3 5 - - 0.0 - - - - - - -
30/05:30am 9.6 W 4 7 - - 0.0 - - - - - - -
30/05:00am 10.4 NW 9 16 - - 0.0 - - - - - - -
30/04:30am 10.3 WNW 7 11 - - 0.0 - - - - - - -
30/04:00am 10.7 WSW 3 5 - - 0.0 - - - - - - -
30/03:30am 12.9 NNW 10 14 - - 0.0 - - - - - - -
30/03:00am 13.7 NNW 13 17 - - 0.0 - - - - - - -
30/02:30am 13.6 N 11 15 - - 0.0 - - - - - - -
30/02:00am 13.5 N 12 18 - - 0.0 - - - - - - -
30/01:30am 12.5 NNW 5 8 - - 0.0 - - - - - - -
30/01:00am 12.9 NNW 7 11 - - 0.0 - - - - - - -
30/12:30am 12.2 NW 7 11 - - 0.0 - - - - - - -
30/12:00am 11.6 NW 9 10 - - 0.0 - - - - - - -
 
Date/Time
EST
Temp
°C
Wind Pressure Rain since
9am
mm
Weather Cloud Vis
km
Sea
Height
m
Swell
Dir  Spd
kts
Gust
kts
hPa Trend Height
m
Period
s
Dir
29/11:30pm 11.1 NW 8 9 - - 0.0 - - - - - - -
29/11:00pm 10.9 NW 7 9 - - 0.0 - - - - - - -
29/10:30pm 10.8 NW 7 8 - - 0.0 - - - - - - -
29/10:00pm 11.1 NW 6 7 - - 0.0 - - - - - - -
29/09:30pm 11.1 WNW 5 6 - - 0.0 - - - - - - -
29/09:00pm 11.3 NW 5 6 - - 0.0 - - - - - - -
29/08:30pm 11.7 NW 6 7 - - 0.0 - - - - - - -
29/08:00pm 11.4 WNW 5 6 - - 0.0 - - - - - - -
29/07:30pm 11.6 WNW 5 5 - - 0.0 - - - - - - -
29/07:00pm 11.6 WNW 5 5 - - 0.0 - - - - - - -
29/06:30pm 12.2 WNW 4 5 - - 0.0 - - - - - - -
29/06:00pm 12.4 WNW 5 5 - - 0.0 - - - - - - -
29/05:30pm 12.8 WNW 5 5 - - 0.0 - - - - - - -
29/05:00pm 13.8 W 4 6 - - 0.0 - - - - - - -
29/04:30pm 15.8 ESE 1 4 - - 0.0 - - - - - - -
29/04:00pm 16.4 CALM 0 1 - - 0.0 - - - - - - -
29/03:30pm 16.7 SE 3 4 - - 0.0 - - - - - - -
29/03:00pm 16.9 ESE 4 5 - - 0.0 - - - - - - -
29/02:30pm 16.9 ESE 5 6 - - 0.0 - - - - - - -
29/02:00pm 16.9 SE 5 7 - - 0.0 - - - - - - -
29/01:30pm 17.0 SE 4 5 - - 0.0 - - - - - - -
29/01:00pm 16.6 SE 6 7 - - 0.0 - - - - - - -
29/12:30pm 16.5 SE 6 6 - - 0.0 - - - - - - -
29/12:00pm 16.7 SE 4 5 - - 0.0 - - - - - - -
29/11:30am 16.9 SE 3 4 - - 0.0 - - - - - - -
29/11:00am 16.4 SE 1 3 - - 0.0 - - - - - - -
29/10:30am 15.9 CALM 0 2 - - 0.0 - - - - - - -
29/10:00am 15.6 SE 2 5 - - 0.0 - - - - - - -
29/09:30am 15.2 SE 2 3 - - 0.0 - - - - - - -
29/09:00am 13.8 CALM 0 0 - - 0.0 - - - - - - -
29/08:30am 12.4 WNW 3 5 - - 0.0 - - - - - - -
29/08:00am 10.7 NW 3 4 - - 0.0 - - - - - - -
29/07:30am 9.7 NW 4 5 - - 0.0 - - - - - - -
29/07:00am 9.3 NW 2 4 - - 0.0 - - - - - - -
29/06:30am 8.8 WNW 4 5 - - 0.0 - - - - - - -
29/06:00am 8.9 WNW 4 5 - - 0.0 - - - - - - -
29/05:30am 8.6 WNW 6 7 - - 0.0 - - - - - - -
29/05:00am 8.8 NW 5 7 - - 0.0 - - - - - - -
29/04:30am 9.0 NW 5 7 - - 0.0 - - - - - - -
29/04:00am 10.0 CALM 0 0 - - 0.0 - - - - - - -
29/03:30am 9.9 W 5 7 - - 0.0 - - - - - - -
29/03:00am 10.4 NW 4 6 - - 0.0 - - - - - - -
29/02:30am 10.0 W 7 10 - - 0.0 - - - - - - -
29/02:00am 9.5 WNW 5 6 - - 0.0 - - - - - - -
29/01:30am 9.4 WNW 6 7 - - 0.0 - - - - - - -
29/01:00am 9.7 WNW 5 6 - - 0.0 - - - - - - -
29/12:30am 10.2 W 6 8 - - 0.0 - - - - - - -
29/12:00am 10.5 W 8 11 - - 0.0 - - - - - - -
 
Date/Time
EST
Temp
°C
Wind Pressure Rain since
9am
mm
Weather Cloud Vis
km
Sea
Height
m
Swell
Dir  Spd
kts
Gust
kts
hPa Trend Height
m
Period
s
Dir
28/11:30pm 10.5 W 8 12 - - 0.0 - - - - - - -
28/11:00pm 10.6 W 9 12 - - 0.0 - - - - - - -
28/10:30pm 10.4 WSW 9 12 - - 0.0 - - - - - - -
28/10:00pm 10.5 WSW 9 12 - - 0.0 - - - - - - -
28/09:30pm 10.4 WSW 8 12 - - 0.0 - - - - - - -
28/09:00pm 10.5 WSW 8 12 - - 0.0 - - - - - - -
28/08:30pm 10.4 WSW 6 8 - - 0.0 - - - - - - -
28/08:00pm 10.8 WSW 8 11 - - 0.0 - - - - - - -

Other Formats:

Comma delimited format used in spreadsheet applications
http://www.bom.gov.au/fwo/IDN60701/IDN60701.94749.axf

JavaScript Object Notation format (JSON) in row-major order
http://www.bom.gov.au/fwo/IDN60701/IDN60701.94749.json